createdAt,value
2019-03-27T00:01:16.125Z,7.53
2019-03-27T00:02:48.624Z,7.37
2019-03-27T00:04:21.112Z,6.60
2019-03-27T00:05:53.475Z,7.10
2019-03-27T00:07:25.959Z,6.90
2019-03-27T00:08:58.367Z,6.73
2019-03-27T00:10:30.800Z,6.90
2019-03-27T00:12:03.288Z,7.37
2019-03-27T00:13:35.772Z,6.90
2019-03-27T00:15:13.224Z,6.90
2019-03-27T00:16:42.325Z,6.87
2019-03-27T00:18:14.737Z,6.63
2019-03-27T00:19:47.143Z,6.67
2019-03-27T00:21:19.575Z,7.10
2019-03-27T00:22:52.067Z,8.50
2019-03-27T00:24:24.475Z,7.93
2019-03-27T00:25:56.983Z,7.93
2019-03-27T00:27:29.471Z,8.27
2019-03-27T00:29:01.884Z,7.33
2019-03-27T00:30:34.403Z,7.37
2019-03-27T00:32:06.866Z,8.30
2019-03-27T00:33:39.200Z,7.93
2019-03-27T00:35:11.551Z,7.00
2019-03-27T00:36:43.988Z,6.63
2019-03-27T00:38:16.332Z,7.40
2019-03-27T00:39:48.801Z,6.93
2019-03-27T00:41:21.223Z,7.40
2019-03-27T00:42:53.639Z,7.60
2019-03-27T00:44:26.039Z,6.90
2019-03-27T00:45:58.471Z,6.80
2019-03-27T00:47:30.820Z,7.50
2019-03-27T00:49:03.308Z,6.87
2019-03-27T00:50:35.820Z,6.93
2019-03-27T00:52:08.255Z,8.40
2019-03-27T00:53:40.674Z,8.17
2019-03-27T00:55:13.019Z,7.50
2019-03-27T00:56:45.366Z,7.47
2019-03-27T00:58:17.782Z,8.17
2019-03-27T00:59:50.260Z,7.60
2019-03-27T01:01:22.695Z,7.80
2019-03-27T01:02:55.223Z,8.17
2019-03-27T01:04:27.709Z,8.03
2019-03-27T01:06:00.119Z,7.87
2019-03-27T01:07:32.627Z,8.00
2019-03-27T01:09:05.031Z,8.90
2019-03-27T01:10:37.383Z,8.43
2019-03-27T01:12:09.902Z,8.63
2019-03-27T01:13:42.295Z,8.57
2019-03-27T01:15:14.642Z,7.83
2019-03-27T01:16:47.067Z,8.53
2019-03-27T01:18:19.402Z,8.07
2019-03-27T01:19:51.752Z,8.03
2019-03-27T01:21:24.328Z,8.10
2019-03-27T01:22:56.843Z,9.17
2019-03-27T01:24:29.324Z,8.53
2019-03-27T01:26:01.743Z,9.00
2019-03-27T01:27:35.681Z,8.20
2019-03-27T01:29:08.359Z,8.17
2019-03-27T01:30:40.699Z,9.17
2019-03-27T01:32:13.211Z,9.33
2019-03-27T01:33:45.618Z,8.20
2019-03-27T01:35:18.104Z,7.60
2019-03-27T01:36:50.615Z,7.67
2019-03-27T01:38:23.030Z,8.73
2019-03-27T01:39:55.526Z,8.27
2019-03-27T01:41:28.010Z,7.50
2019-03-27T01:43:00.453Z,7.93
2019-03-27T01:44:33.043Z,7.93
2019-03-27T01:46:05.539Z,8.27
2019-03-27T01:47:37.979Z,9.43
2019-03-27T01:49:10.466Z,9.53
2019-03-27T01:50:42.876Z,8.47
2019-03-27T01:52:15.312Z,8.87
2019-03-27T01:53:47.714Z,8.77
2019-03-27T01:55:20.195Z,8.53
2019-03-27T01:56:52.630Z,8.93
2019-03-27T01:58:25.132Z,8.57
2019-03-27T01:59:57.614Z,9.20
2019-03-27T02:01:29.947Z,7.93
2019-03-27T02:03:02.383Z,8.93
2019-03-27T02:04:34.958Z,8.13
2019-03-27T02:06:07.307Z,8.27
2019-03-27T02:07:39.743Z,8.53
2019-03-27T02:09:12.163Z,8.03
2019-03-27T02:10:44.574Z,8.40
2019-03-27T02:12:16.988Z,7.93
2019-03-27T02:13:49.435Z,8.10
2019-03-27T02:15:21.850Z,8.30
2019-03-27T02:16:54.330Z,8.37
2019-03-27T02:18:26.845Z,8.40
2019-03-27T02:19:59.283Z,8.80
2019-03-27T02:21:31.766Z,8.20
2019-03-27T02:23:04.260Z,7.97
2019-03-27T02:24:36.699Z,8.73
2019-03-27T02:26:09.283Z,9.10
2019-03-27T02:27:41.695Z,8.33
2019-03-27T02:29:14.138Z,9.23
2019-03-27T02:30:46.643Z,8.20
2019-03-27T02:32:20.915Z,8.63
2019-03-27T02:33:53.193Z,7.90
2019-03-27T02:35:25.700Z,8.70
2019-03-27T02:36:58.174Z,9.40
2019-03-27T02:38:30.597Z,8.33
2019-03-27T02:40:03.100Z,10.10
2019-03-27T02:41:35.587Z,8.00
2019-03-27T02:43:08.008Z,9.33
2019-03-27T02:44:40.496Z,9.00
2019-03-27T02:46:24.673Z,8.67
2019-03-27T02:47:47.035Z,9.37
2019-03-27T02:49:19.548Z,8.50
2019-03-27T02:50:51.992Z,8.63
2019-03-27T02:52:24.407Z,8.83
2019-03-27T02:53:56.887Z,9.70
2019-03-27T02:55:29.377Z,9.73
2019-03-27T02:57:01.817Z,9.30
2019-03-27T02:58:34.316Z,8.60
2019-03-27T03:00:06.784Z,8.27
2019-03-27T03:01:39.147Z,9.03
2019-03-27T03:03:11.635Z,8.73
2019-03-27T03:04:44.116Z,9.27
2019-03-27T03:06:16.561Z,10.33
2019-03-27T03:07:49.051Z,8.53
2019-03-27T03:09:21.535Z,10.03
2019-03-27T03:10:53.985Z,8.30
2019-03-27T03:12:26.395Z,9.27
2019-03-27T03:13:58.901Z,9.33
2019-03-27T03:15:31.327Z,9.93
2019-03-27T03:17:03.904Z,8.93
2019-03-27T03:18:36.369Z,9.83
2019-03-27T03:20:08.743Z,9.50
2019-03-27T03:21:41.235Z,10.43
2019-03-27T03:23:13.725Z,9.97
2019-03-27T03:24:46.141Z,9.60
2019-03-27T03:26:18.631Z,10.07
2019-03-27T03:27:50.977Z,9.53
2019-03-27T03:29:23.473Z,10.43
2019-03-27T03:30:55.960Z,10.00
2019-03-27T03:32:28.393Z,9.97
2019-03-27T03:34:00.971Z,11.67
2019-03-27T03:35:33.709Z,10.20
2019-03-27T03:37:06.208Z,9.80
2019-03-27T03:38:38.564Z,10.40
2019-03-27T03:40:11.949Z,12.27
2019-03-27T03:41:44.452Z,9.60
2019-03-27T03:43:16.858Z,10.50
2019-03-27T03:44:49.344Z,10.57
2019-03-27T03:46:21.867Z,10.03
2019-03-27T03:47:54.283Z,10.07
2019-03-27T03:49:26.694Z,10.03
2019-03-27T03:50:59.100Z,10.47
2019-03-27T03:52:31.475Z,10.73
2019-03-27T03:54:03.955Z,10.80
2019-03-27T03:55:36.449Z,11.20
2019-03-27T03:57:08.896Z,11.40
2019-03-27T03:58:41.379Z,10.80
2019-03-27T04:00:13.865Z,12.00
2019-03-27T04:01:46.512Z,11.00
2019-03-27T04:03:18.985Z,10.03
2019-03-27T04:04:51.468Z,11.53
2019-03-27T04:06:23.951Z,11.30
2019-03-27T04:07:56.393Z,10.43
2019-03-27T04:09:28.752Z,11.83
2019-03-27T04:11:01.170Z,11.03
2019-03-27T04:12:34.320Z,10.47
2019-03-27T04:14:06.795Z,11.10
2019-03-27T04:15:39.212Z,11.37
2019-03-27T04:17:17.409Z,10.83
2019-03-27T04:18:45.810Z,11.33
2019-03-27T04:20:18.227Z,12.90
2019-03-27T04:21:50.835Z,11.47
2019-03-27T04:23:23.334Z,11.00
2019-03-27T04:24:55.780Z,10.90
2019-03-27T04:26:28.267Z,12.10
2019-03-27T04:28:00.775Z,11.37
2019-03-27T04:29:33.129Z,11.07
2019-03-27T04:31:05.541Z,11.67
2019-03-27T04:32:38.050Z,10.80
2019-03-27T04:34:10.407Z,10.93
2019-03-27T04:35:42.831Z,11.40
2019-03-27T04:37:15.393Z,10.93
2019-03-27T04:38:47.817Z,11.57
2019-03-27T04:40:20.241Z,11.00
2019-03-27T04:41:52.723Z,11.33
2019-03-27T04:43:32.847Z,11.47
2019-03-27T04:47:31.532Z,11.33
2019-03-27T04:49:07.706Z,12.00
2019-03-27T04:50:40.487Z,11.17
2019-03-27T04:52:25.015Z,12.03
2019-03-27T04:53:57.518Z,11.40
2019-03-27T04:55:29.926Z,10.67
2019-03-27T04:57:02.403Z,10.97
2019-03-27T04:58:34.940Z,10.97
2019-03-27T05:00:07.285Z,11.70
2019-03-27T05:01:39.771Z,12.10
2019-03-27T05:03:12.216Z,11.50
2019-03-27T05:04:44.683Z,11.60
2019-03-27T05:06:17.078Z,11.60
2019-03-27T05:07:49.487Z,12.80
2019-03-27T05:09:22.971Z,11.83
2019-03-27T05:10:56.135Z,11.23
2019-03-27T05:12:28.539Z,11.90
2019-03-27T05:14:01.187Z,11.30
2019-03-27T05:15:33.599Z,11.40
2019-03-27T05:17:06.078Z,12.03
2019-03-27T05:18:38.535Z,12.20
2019-03-27T05:20:10.974Z,14.03
2019-03-27T05:21:43.527Z,12.53
2019-03-27T05:23:16.131Z,12.73
2019-03-27T05:24:48.583Z,12.13
2019-03-27T05:26:21.003Z,12.43
2019-03-27T05:27:54.836Z,13.03
2019-03-27T05:29:27.347Z,11.77
2019-03-27T05:31:01.358Z,11.27
2019-03-27T05:32:33.775Z,11.93
2019-03-27T05:34:06.287Z,12.77
2019-03-27T05:35:40.267Z,12.37
2019-03-27T05:37:12.615Z,13.80
2019-03-27T05:38:45.235Z,12.33
2019-03-27T05:40:17.658Z,11.67
2019-03-27T05:41:50.056Z,11.77
2019-03-27T05:43:22.438Z,11.13
2019-03-27T05:44:54.923Z,11.53
2019-03-27T05:46:27.333Z,11.27
2019-03-27T05:48:00.223Z,10.83
2019-03-27T05:49:32.723Z,11.63
2019-03-27T05:51:05.139Z,10.70
2019-03-27T05:52:37.582Z,13.10
2019-03-27T05:54:10.059Z,12.47
2019-03-27T05:55:42.463Z,11.87
2019-03-27T05:57:14.959Z,11.97
2019-03-27T05:58:47.395Z,12.97
2019-03-27T06:00:19.739Z,11.40
2019-03-27T06:01:52.171Z,11.27
2019-03-27T06:03:24.668Z,12.73
2019-03-27T06:04:57.099Z,11.93
2019-03-27T06:06:29.523Z,11.13
2019-03-27T06:08:02.023Z,10.67
2019-03-27T06:09:34.538Z,12.20
2019-03-27T06:11:07.043Z,11.20
2019-03-27T06:12:39.478Z,11.17
2019-03-27T06:14:11.920Z,11.07
2019-03-27T06:15:45.236Z,11.43
2019-03-27T06:17:18.023Z,10.50
2019-03-27T06:18:50.441Z,10.90
2019-03-27T06:20:22.867Z,10.90
2019-03-27T06:21:55.358Z,11.13
2019-03-27T06:23:27.771Z,10.80
2019-03-27T06:25:00.399Z,12.40
2019-03-27T06:26:32.850Z,11.53
2019-03-27T06:28:05.195Z,12.17
2019-03-27T06:29:37.796Z,11.37
2019-03-27T06:31:10.317Z,11.50
2019-03-27T06:32:42.721Z,11.70
2019-03-27T06:34:15.070Z,12.60
2019-03-27T06:35:47.563Z,12.63
2019-03-27T06:37:19.902Z,11.97
2019-03-27T06:38:52.297Z,11.77
2019-03-27T06:40:24.812Z,11.63
2019-03-27T06:41:57.207Z,10.77
2019-03-27T06:43:29.535Z,12.20
2019-03-27T06:45:01.960Z,12.60
2019-03-27T06:46:34.370Z,13.60
2019-03-27T06:48:06.772Z,12.23
2019-03-27T06:49:39.194Z,11.87
2019-03-27T06:51:11.609Z,11.53
2019-03-27T06:52:44.096Z,12.87
2019-03-27T06:54:16.580Z,12.43
2019-03-27T06:55:48.927Z,12.87
2019-03-27T06:57:21.435Z,13.23
2019-03-27T06:58:55.107Z,12.80
2019-03-27T07:00:28.495Z,12.80
2019-03-27T07:02:19.031Z,11.73
2019-03-27T07:03:51.455Z,13.70
2019-03-27T07:05:23.926Z,12.20
2019-03-27T07:06:56.336Z,13.97
2019-03-27T07:08:28.843Z,12.37
2019-03-27T07:10:01.508Z,12.03
2019-03-27T07:11:34.026Z,12.60
2019-03-27T07:13:06.439Z,12.43
2019-03-27T07:14:38.856Z,12.60
2019-03-27T07:16:11.275Z,11.37
2019-03-27T07:17:43.796Z,13.97
2019-03-27T07:19:16.365Z,12.40
2019-03-27T07:20:48.783Z,12.87
2019-03-27T07:22:21.198Z,11.80
2019-03-27T07:23:53.660Z,16.13
2019-03-27T07:25:26.081Z,14.10
2019-03-27T07:26:58.779Z,13.10
2019-03-27T07:28:31.187Z,13.80
2019-03-27T07:30:03.541Z,12.50
2019-03-27T07:31:36.101Z,12.10
2019-03-27T07:33:08.503Z,13.07
2019-03-27T07:34:40.839Z,11.97
2019-03-27T07:36:13.322Z,13.10
2019-03-27T07:37:45.738Z,12.50
2019-03-27T07:39:18.095Z,12.37
2019-03-27T07:40:50.507Z,12.40
2019-03-27T07:42:22.908Z,12.87
2019-03-27T07:43:55.237Z,13.60
2019-03-27T07:45:27.655Z,13.93
2019-03-27T07:47:00.055Z,11.60
2019-03-27T07:48:32.386Z,12.17
2019-03-27T07:50:04.778Z,14.77
2019-03-27T07:51:37.219Z,11.60
2019-03-27T07:53:09.550Z,12.13
2019-03-27T07:54:41.879Z,12.67
2019-03-27T07:56:14.312Z,12.07
2019-03-27T07:57:46.652Z,12.17
2019-03-27T07:59:18.986Z,12.80
2019-03-27T08:00:51.398Z,12.37
2019-03-27T08:02:23.744Z,11.80
2019-03-27T08:03:56.210Z,12.73
2019-03-27T08:05:28.611Z,13.07
2019-03-27T08:07:00.971Z,12.80
2019-03-27T08:08:33.452Z,12.40
2019-03-27T08:10:05.928Z,13.20
2019-03-27T08:11:38.375Z,13.63
2019-03-27T08:13:10.969Z,13.03
2019-03-27T08:14:43.379Z,13.23
2019-03-27T08:16:15.726Z,12.53
2019-03-27T08:17:48.055Z,12.03
2019-03-27T08:19:20.537Z,13.67
2019-03-27T08:20:52.944Z,12.30
2019-03-27T08:22:25.367Z,12.80
2019-03-27T08:23:58.064Z,13.70
2019-03-27T08:25:30.471Z,13.73
2019-03-27T08:27:02.883Z,12.80
2019-03-27T08:28:35.304Z,14.30
2019-03-27T08:30:07.710Z,13.07
2019-03-27T08:31:40.218Z,12.80
2019-03-27T08:33:12.711Z,12.77
2019-03-27T08:34:45.034Z,12.90
2019-03-27T08:36:17.454Z,14.17
2019-03-27T08:37:50.172Z,11.90
2019-03-27T08:39:22.498Z,13.17
2019-03-27T08:40:54.900Z,13.37
2019-03-27T08:42:27.407Z,14.97
2019-03-27T08:43:59.826Z,15.43
2019-03-27T08:45:32.243Z,13.30
2019-03-27T08:47:04.735Z,13.93
2019-03-27T08:48:39.181Z,13.87
2019-03-27T08:50:11.170Z,13.83
2019-03-27T08:51:43.529Z,14.07
2019-03-27T08:53:15.936Z,12.67
2019-03-27T08:54:48.368Z,13.33
2019-03-27T08:56:20.739Z,14.17
2019-03-27T08:57:53.549Z,14.03
2019-03-27T08:59:26.027Z,13.47
2019-03-27T09:00:58.502Z,13.03
2019-03-27T09:02:30.922Z,13.73
2019-03-27T09:04:03.418Z,12.90
2019-03-27T09:05:35.822Z,13.90
2019-03-27T09:07:08.303Z,13.63
2019-03-27T09:08:40.748Z,12.13
2019-03-27T09:10:13.165Z,12.83
2019-03-27T09:11:45.587Z,13.10
2019-03-27T09:13:18.003Z,12.77
2019-03-27T09:14:50.406Z,13.47
2019-03-27T09:16:22.749Z,12.80
2019-03-27T09:17:55.250Z,13.87
2019-03-27T09:19:35.563Z,13.17
2019-03-27T09:21:01.815Z,14.27
2019-03-27T09:22:34.236Z,14.93
2019-03-27T09:24:06.641Z,13.83
2019-03-27T09:25:40.601Z,12.63
2019-03-27T09:27:12.995Z,12.27
2019-03-27T09:28:45.422Z,12.97
2019-03-27T09:30:17.760Z,13.93
2019-03-27T09:31:50.179Z,12.63
2019-03-27T09:33:22.624Z,14.00
2019-03-27T09:34:55.039Z,13.63
2019-03-27T09:36:27.456Z,12.93
2019-03-27T09:37:59.890Z,12.13
2019-03-27T09:39:32.298Z,12.67
2019-03-27T09:41:04.804Z,12.97
2019-03-27T09:42:37.303Z,13.20
2019-03-27T09:44:09.714Z,13.10
2019-03-27T09:45:42.126Z,13.20
2019-03-27T09:47:14.538Z,13.30
2019-03-27T09:48:46.894Z,11.83
2019-03-27T09:50:21.774Z,13.10
2019-03-27T09:51:54.370Z,13.00
2019-03-27T09:53:26.787Z,13.27
2019-03-27T09:54:59.179Z,13.90
2019-03-27T09:56:31.671Z,13.60
2019-03-27T09:58:04.168Z,13.23
2019-03-27T09:59:36.963Z,13.93
2019-03-27T10:01:09.671Z,13.50
2019-03-27T10:02:57.207Z,12.50
2019-03-27T10:04:29.551Z,11.27
2019-03-27T10:06:02.043Z,12.03
2019-03-27T10:07:34.504Z,12.73
2019-03-27T10:09:06.978Z,12.97
2019-03-27T10:10:39.495Z,12.03
2019-03-27T10:12:12.000Z,13.30
2019-03-27T10:13:44.557Z,11.80
2019-03-27T10:15:17.048Z,12.87
2019-03-27T10:16:49.571Z,13.03
2019-03-27T10:18:22.074Z,12.63
2019-03-27T10:20:03.317Z,11.70
2019-03-27T10:21:28.654Z,11.23
2019-03-27T10:23:01.096Z,11.50
2019-03-27T10:24:33.635Z,10.87
2019-03-27T10:26:06.180Z,11.03
2019-03-27T10:27:38.674Z,12.73
2019-03-27T10:29:11.091Z,13.57
2019-03-27T10:30:43.721Z,12.47
2019-03-27T10:32:16.220Z,14.67
2019-03-27T10:33:48.740Z,10.20
2019-03-27T10:35:21.158Z,11.13
2019-03-27T10:36:53.699Z,12.20
2019-03-27T10:38:26.391Z,11.93
2019-03-27T10:39:58.811Z,12.30
2019-03-27T10:41:31.226Z,12.50
2019-03-27T10:43:03.668Z,11.63
2019-03-27T10:44:36.027Z,11.43
2019-03-27T10:46:08.516Z,11.27
2019-03-27T10:47:41.012Z,12.37
2019-03-27T10:49:13.532Z,12.07
2019-03-27T10:50:45.936Z,12.83
2019-03-27T10:52:18.307Z,11.17
2019-03-27T10:53:50.754Z,11.07
2019-03-27T10:55:23.226Z,11.67
2019-03-27T10:56:55.661Z,12.53
2019-03-27T10:58:28.178Z,11.63
2019-03-27T11:00:05.492Z,10.83
2019-03-27T11:01:41.455Z,11.10
2019-03-27T11:03:14.928Z,10.73
2019-03-27T11:04:47.463Z,11.17
2019-03-27T11:06:19.903Z,11.23
2019-03-27T11:07:52.310Z,11.30
2019-03-27T11:09:24.668Z,10.90
2019-03-27T11:10:57.141Z,10.50
2019-03-27T11:12:29.482Z,10.80
2019-03-27T11:14:01.831Z,11.33
2019-03-27T11:15:34.244Z,10.70
2019-03-27T11:17:06.648Z,10.30
2019-03-27T11:18:39.203Z,9.80
2019-03-27T11:20:11.622Z,10.13
2019-03-27T11:21:44.032Z,10.73
2019-03-27T11:23:16.446Z,10.50
2019-03-27T11:24:48.941Z,10.23
2019-03-27T11:26:21.272Z,9.97
2019-03-27T11:27:53.692Z,10.27
2019-03-27T11:29:26.107Z,10.43
2019-03-27T11:30:58.527Z,9.83
2019-03-27T11:32:31.090Z,10.10
2019-03-27T11:34:03.544Z,9.53
2019-03-27T11:35:35.894Z,10.27
2019-03-27T11:37:08.234Z,10.17
2019-03-27T11:38:40.708Z,9.60
2019-03-27T11:40:13.065Z,9.40
2019-03-27T11:41:45.543Z,9.30
2019-03-27T11:43:17.956Z,9.57
2019-03-27T11:44:50.370Z,8.73
2019-03-27T11:46:22.850Z,9.67
2019-03-27T11:47:55.204Z,9.13
2019-03-27T11:49:27.609Z,9.80
2019-03-27T11:51:00.107Z,9.83
2019-03-27T11:52:32.511Z,9.63
2019-03-27T11:54:04.842Z,9.13
2019-03-27T11:55:37.299Z,9.17
2019-03-27T11:57:09.708Z,9.53
2019-03-27T11:58:42.049Z,11.07
2019-03-27T12:00:14.628Z,11.50
2019-03-27T12:01:47.058Z,11.67
2019-03-27T12:03:19.462Z,12.30
2019-03-27T12:04:51.864Z,11.60
2019-03-27T12:06:24.270Z,11.40
2019-03-27T12:07:56.634Z,13.17
2019-03-27T12:09:29.043Z,11.90
2019-03-27T12:11:01.387Z,12.23
2019-03-27T12:12:33.754Z,12.57
2019-03-27T12:14:06.168Z,12.30
2019-03-27T12:15:38.720Z,11.67
2019-03-27T12:17:11.114Z,12.13
2019-03-27T12:18:43.515Z,12.03
2019-03-27T12:20:15.940Z,11.80
2019-03-27T12:21:48.289Z,12.30
2019-03-27T12:23:20.666Z,11.87
2019-03-27T12:24:53.155Z,10.77
2019-03-27T12:26:25.505Z,12.13
2019-03-27T12:27:57.922Z,12.00
2019-03-27T12:29:30.350Z,11.20
2019-03-27T12:31:02.759Z,11.73
2019-03-27T12:32:35.283Z,11.63
2019-03-27T12:34:07.682Z,11.27
2019-03-27T12:35:43.135Z,12.40
2019-03-27T12:37:15.568Z,11.60
2019-03-27T12:38:48.042Z,10.97
2019-03-27T12:40:20.419Z,10.57
2019-03-27T12:41:52.840Z,10.80
2019-03-27T12:43:25.399Z,10.27
2019-03-27T12:44:57.815Z,10.70
2019-03-27T12:46:30.271Z,10.73
2019-03-27T12:48:02.721Z,10.33
2019-03-27T12:49:35.134Z,11.17
2019-03-27T12:51:13.075Z,10.33
2019-03-27T12:52:41.668Z,10.13
2019-03-27T12:54:14.095Z,9.73
2019-03-27T12:55:46.570Z,9.77
2019-03-27T12:57:18.981Z,10.10
2019-03-27T12:58:51.419Z,9.87
2019-03-27T13:00:23.931Z,9.63
2019-03-27T13:01:56.415Z,9.13
2019-03-27T13:03:28.768Z,9.27
2019-03-27T13:05:01.239Z,8.90
2019-03-27T13:06:33.643Z,8.47
2019-03-27T13:08:05.991Z,9.33
2019-03-27T13:09:38.491Z,8.63
2019-03-27T13:11:10.898Z,8.40
2019-03-27T13:12:43.276Z,9.73
2019-03-27T13:14:15.666Z,9.17
2019-03-27T13:15:48.199Z,8.93
2019-03-27T13:17:20.606Z,8.67
2019-03-27T13:18:52.970Z,8.30
2019-03-27T13:20:25.460Z,9.33
2019-03-27T13:21:57.791Z,9.13
2019-03-27T13:23:30.190Z,9.13
2019-03-27T13:25:02.606Z,9.10
2019-03-27T13:26:35.026Z,9.57
2019-03-27T13:28:07.435Z,8.47
2019-03-27T13:29:39.943Z,9.00
2019-03-27T13:31:12.373Z,9.43
2019-03-27T13:32:44.843Z,9.07
2019-03-27T13:34:17.311Z,9.50
2019-03-27T13:35:49.656Z,9.20
2019-03-27T13:37:22.084Z,8.30
2019-03-27T13:38:54.479Z,9.80
2019-03-27T13:40:26.825Z,8.80
2019-03-27T13:41:59.238Z,8.00
2019-03-27T13:43:31.646Z,9.53
2019-03-27T13:45:03.992Z,9.50
2019-03-27T13:46:36.348Z,9.10
2019-03-27T13:48:08.837Z,7.93
2019-03-27T13:49:41.246Z,8.60
2019-03-27T13:51:13.683Z,8.93
2019-03-27T13:52:46.083Z,7.97
2019-03-27T13:54:18.554Z,8.40
2019-03-27T13:55:50.978Z,8.90
2019-03-27T13:57:23.384Z,8.60
2019-03-27T13:58:55.712Z,8.40
2019-03-27T14:00:28.110Z,8.00
2019-03-27T14:02:00.835Z,8.27
2019-03-27T14:03:33.256Z,8.17
2019-03-27T14:05:05.650Z,8.43
2019-03-27T14:06:38.176Z,8.97
2019-03-27T14:08:10.580Z,8.50
2019-03-27T14:09:43.027Z,7.70
2019-03-27T14:11:15.518Z,8.10
2019-03-27T14:12:47.859Z,8.13
2019-03-27T14:14:23.779Z,9.23
2019-03-27T14:15:56.221Z,8.97
2019-03-27T14:17:28.792Z,8.90
2019-03-27T14:19:01.388Z,7.73
2019-03-27T14:20:33.863Z,8.27
2019-03-27T14:22:06.394Z,8.40
2019-03-27T14:23:38.880Z,8.33
2019-03-27T14:25:11.397Z,8.13
2019-03-27T14:26:45.497Z,7.83
2019-03-27T14:28:18.144Z,7.87
2019-03-27T14:29:53.089Z,8.57
2019-03-27T14:31:24.852Z,8.33
2019-03-27T14:32:57.274Z,7.60
2019-03-27T14:34:29.768Z,8.23
2019-03-27T14:36:02.153Z,7.83
2019-03-27T14:37:34.691Z,7.73
2019-03-27T14:39:07.112Z,8.10
2019-03-27T14:40:39.671Z,8.93
2019-03-27T14:42:12.181Z,9.10
2019-03-27T14:43:44.676Z,9.07
2019-03-27T14:45:17.103Z,8.23
2019-03-27T14:46:49.623Z,7.35
2019-03-27T14:48:22.569Z,7.77
2019-03-27T14:49:55.059Z,8.30
2019-03-27T14:51:27.824Z,7.33
2019-03-27T14:53:00.226Z,7.07
2019-03-27T14:54:32.683Z,7.90
2019-03-27T14:56:05.158Z,7.50
2019-03-27T14:57:37.618Z,8.07
2019-03-27T14:59:10.039Z,8.00
2019-03-27T15:00:42.463Z,7.40
2019-03-27T15:02:14.918Z,7.77
2019-03-27T15:03:47.331Z,7.00
2019-03-27T15:05:19.844Z,6.70
2019-03-27T15:06:52.342Z,7.03
2019-03-27T15:08:24.771Z,7.77
2019-03-27T15:09:57.396Z,6.30
2019-03-27T15:11:29.879Z,6.93
2019-03-27T15:13:02.333Z,7.37
2019-03-27T15:14:34.871Z,6.77
2019-03-27T15:16:07.366Z,6.27
2019-03-27T15:17:39.798Z,6.60
2019-03-27T15:19:12.219Z,6.50
2019-03-27T15:20:44.659Z,7.23
2019-03-27T15:22:22.567Z,7.23
2019-03-27T15:23:51.163Z,6.47
2019-03-27T15:25:23.676Z,6.73
2019-03-27T15:26:56.543Z,6.40
2019-03-27T15:28:29.011Z,6.93
2019-03-27T15:30:01.412Z,6.87
2019-03-27T15:31:33.932Z,6.37
2019-03-27T15:33:09.478Z,6.60
2019-03-27T15:34:41.886Z,6.00
2019-03-27T15:36:17.518Z,6.17
2019-03-27T15:37:49.873Z,7.03
2019-03-27T15:39:22.671Z,6.27
2019-03-27T15:40:55.019Z,5.73
2019-03-27T15:42:30.254Z,5.40
2019-03-27T15:44:05.678Z,5.70
2019-03-27T15:45:38.211Z,5.90
2019-03-27T15:47:10.771Z,6.70
2019-03-27T15:48:43.343Z,6.27
2019-03-27T15:50:15.756Z,6.30
2019-03-27T15:51:48.202Z,6.80
2019-03-27T15:53:20.611Z,5.77
2019-03-27T15:54:53.066Z,6.60
2019-03-27T15:56:29.039Z,6.23
2019-03-27T15:58:01.503Z,6.20
2019-03-27T15:59:34.019Z,5.47
2019-03-27T16:01:06.502Z,6.07
2019-03-27T16:02:38.922Z,5.57
2019-03-27T16:04:11.287Z,6.27
2019-03-27T16:05:43.760Z,5.70
2019-03-27T16:07:16.178Z,5.93
2019-03-27T16:08:48.507Z,6.27
2019-03-27T16:10:21.254Z,6.10
2019-03-27T16:11:53.730Z,5.93
2019-03-27T16:13:26.206Z,6.33
2019-03-27T16:14:58.675Z,5.90
2019-03-27T16:16:31.082Z,6.20
2019-03-27T16:18:03.446Z,5.77
2019-03-27T16:19:35.923Z,5.80
2019-03-27T16:21:08.267Z,5.53
2019-03-27T16:22:50.622Z,5.03
2019-03-27T16:24:14.786Z,5.53
2019-03-27T16:25:47.183Z,6.10
2019-03-27T16:27:19.515Z,5.43
2019-03-27T16:28:51.875Z,5.47
2019-03-27T16:30:24.271Z,5.73
2019-03-27T16:31:56.657Z,5.47
2019-03-27T16:33:29.184Z,5.73
2019-03-27T16:35:01.591Z,5.97
2019-03-27T16:36:34.024Z,5.27
2019-03-27T16:38:06.467Z,5.23
2019-03-27T16:39:38.931Z,4.43
2019-03-27T16:41:11.275Z,5.20
2019-03-27T16:42:43.763Z,5.13
2019-03-27T16:44:16.280Z,5.37
2019-03-27T16:45:48.678Z,5.60
2019-03-27T16:47:21.152Z,6.03
2019-03-27T16:48:53.578Z,6.20
2019-03-27T16:50:25.983Z,4.90
2019-03-27T16:51:58.425Z,5.83
2019-03-27T16:55:09.447Z,5.70
2019-03-27T16:56:41.858Z,6.33
2019-03-27T16:58:14.282Z,5.73
2019-03-27T16:59:46.618Z,7.00
2019-03-27T17:01:19.050Z,6.23
2019-03-27T17:02:51.835Z,5.10
2019-03-27T17:04:24.176Z,5.53
2019-03-27T17:05:56.576Z,5.03
2019-03-27T17:07:29.041Z,5.47
2019-03-27T17:09:01.395Z,5.67
2019-03-27T17:10:34.141Z,5.53
2019-03-27T17:12:06.716Z,5.50
2019-03-27T17:13:39.115Z,4.70
2019-03-27T17:15:11.584Z,5.47
2019-03-27T17:16:44.266Z,5.00
2019-03-27T17:18:16.699Z,4.50
2019-03-27T17:19:49.123Z,4.97
2019-03-27T17:21:21.651Z,4.57
2019-03-27T17:22:54.123Z,4.97
2019-03-27T17:24:26.660Z,5.20
2019-03-27T17:25:59.399Z,4.97
2019-03-27T17:27:31.915Z,5.30
2019-03-27T17:29:04.413Z,5.13
2019-03-27T17:30:36.926Z,5.50
2019-03-27T17:32:09.571Z,5.37
2019-03-27T17:33:42.078Z,4.97
2019-03-27T17:35:14.593Z,6.00
2019-03-27T17:36:47.015Z,5.47
2019-03-27T17:38:19.427Z,5.83
2019-03-27T17:39:51.923Z,6.90
2019-03-27T17:41:24.331Z,5.73
2019-03-27T17:42:56.743Z,5.43
2019-03-27T17:44:29.171Z,5.80
2019-03-27T17:46:01.510Z,5.90
2019-03-27T17:47:33.927Z,6.20
2019-03-27T17:49:06.438Z,5.90
2019-03-27T17:50:38.786Z,5.93
2019-03-27T17:52:11.191Z,6.10
2019-03-27T17:53:43.661Z,6.40
2019-03-27T17:55:16.162Z,6.27
2019-03-27T17:56:48.959Z,7.33
2019-03-27T17:58:21.559Z,6.97
2019-03-27T17:59:54.009Z,6.60
2019-03-27T18:01:26.494Z,7.17
2019-03-27T18:02:59.177Z,7.37
2019-03-27T18:04:32.216Z,7.37
2019-03-27T18:06:04.695Z,6.47
2019-03-27T18:07:37.035Z,7.23
2019-03-27T18:09:09.401Z,6.93
2019-03-27T18:10:41.826Z,7.65
2019-03-27T18:12:14.300Z,6.77
2019-03-27T18:13:46.638Z,6.80
2019-03-27T18:15:19.067Z,6.57
2019-03-27T18:16:51.482Z,6.27
2019-03-27T18:18:23.921Z,6.30
2019-03-27T18:19:56.435Z,6.63
2019-03-27T18:21:28.914Z,6.63
2019-03-27T18:23:01.529Z,7.37
2019-03-27T18:24:34.043Z,8.03
2019-03-27T18:26:06.460Z,6.80
2019-03-27T18:27:38.942Z,6.80
2019-03-27T18:29:11.415Z,6.80
2019-03-27T18:30:43.910Z,7.33
2019-03-27T18:32:16.325Z,7.37
2019-03-27T18:33:49.263Z,7.27
2019-03-27T18:35:21.715Z,7.83
2019-03-27T18:36:54.129Z,7.10
2019-03-27T18:38:28.014Z,7.37
2019-03-27T18:40:00.694Z,7.07
2019-03-27T18:41:33.076Z,8.20
2019-03-27T18:43:09.051Z,8.03
2019-03-27T18:44:41.492Z,7.40
2019-03-27T18:46:14.178Z,7.47
2019-03-27T18:47:46.643Z,7.07
2019-03-27T18:49:19.147Z,8.23
2019-03-27T18:50:51.490Z,7.43
2019-03-27T18:52:24.019Z,7.33
2019-03-27T18:53:59.891Z,7.50
2019-03-27T18:55:30.621Z,7.33
2019-03-27T18:57:03.248Z,7.73
2019-03-27T18:58:35.721Z,7.23
2019-03-27T19:00:08.136Z,7.80
2019-03-27T19:01:40.574Z,7.83
2019-03-27T19:03:12.987Z,7.40
2019-03-27T19:04:45.346Z,7.33
2019-03-27T19:06:18.148Z,7.23
2019-03-27T19:07:50.628Z,7.57
2019-03-27T19:09:23.024Z,7.07
2019-03-27T19:10:55.374Z,7.40
2019-03-27T19:12:27.968Z,6.70
2019-03-27T19:14:00.361Z,7.10
2019-03-27T19:15:32.791Z,7.03
2019-03-27T19:17:05.363Z,7.50
2019-03-27T19:18:37.847Z,6.73
2019-03-27T19:20:10.365Z,7.37
2019-03-27T19:21:42.923Z,6.47
2019-03-27T19:23:15.277Z,7.43
2019-03-27T19:24:47.882Z,7.77
2019-03-27T19:26:21.050Z,7.17
2019-03-27T19:27:53.409Z,7.40
2019-03-27T19:29:25.915Z,7.37
2019-03-27T19:30:58.434Z,7.60
2019-03-27T19:32:30.798Z,7.73
2019-03-27T19:34:03.252Z,7.23
2019-03-27T19:35:35.756Z,7.20
2019-03-27T19:37:08.160Z,7.70
2019-03-27T19:38:40.656Z,7.07
2019-03-27T19:40:13.088Z,7.77
2019-03-27T19:41:45.500Z,7.30
2019-03-27T19:43:18.057Z,6.13
2019-03-27T19:44:50.748Z,8.00
2019-03-27T19:46:23.268Z,7.97
2019-03-27T19:47:55.769Z,7.33
2019-03-27T19:49:28.772Z,8.37
2019-03-27T19:51:01.229Z,7.57
2019-03-27T19:52:33.930Z,8.97
2019-03-27T19:54:06.526Z,7.90
2019-03-27T19:55:38.987Z,8.63
2019-03-27T19:57:11.508Z,8.73
2019-03-27T19:58:43.970Z,7.83
2019-03-27T20:00:16.378Z,8.53
2019-03-27T20:01:49.098Z,11.50
2019-03-27T20:03:21.555Z,9.63
2019-03-27T20:04:54.066Z,9.57
2019-03-27T20:06:26.596Z,9.10
2019-03-27T20:07:59.037Z,8.70
2019-03-27T20:09:31.445Z,9.23
2019-03-27T20:11:03.963Z,9.80
2019-03-27T20:12:36.376Z,9.90
2019-03-27T20:14:08.783Z,8.83
2019-03-27T20:15:41.204Z,9.40
2019-03-27T20:17:13.719Z,9.57
2019-03-27T20:18:46.246Z,10.27